sensor_id;sensor_type;location;lat;lon;timestamp;temperature;humidity
70534;SHT31;58088;51.186;17.130;2023-01-19T00:00:20;4.10;78.12
70534;SHT31;58088;51.186;17.130;2023-01-19T00:02:47;4.12;78.20
70534;SHT31;58088;51.186;17.130;2023-01-19T00:05:13;4.13;78.20
70534;SHT31;58088;51.186;17.130;2023-01-19T00:07:40;4.16;78.23
70534;SHT31;58088;51.186;17.130;2023-01-19T00:10:07;4.16;78.20
70534;SHT31;58088;51.186;17.130;2023-01-19T00:12:34;4.12;78.18
70534;SHT31;58088;51.186;17.130;2023-01-19T00:15:01;4.10;78.28
70534;SHT31;58088;51.186;17.130;2023-01-19T00:17:27;4.12;78.30
70534;SHT31;58088;51.186;17.130;2023-01-19T00:19:53;4.13;78.30
70534;SHT31;58088;51.186;17.130;2023-01-19T00:22:19;4.16;78.29
70534;SHT31;58088;51.186;17.130;2023-01-19T00:24:46;4.19;78.21
70534;SHT31;58088;51.186;17.130;2023-01-19T00:27:12;4.21;78.17
70534;SHT31;58088;51.186;17.130;2023-01-19T00:29:38;4.23;78.13
70534;SHT31;58088;51.186;17.130;2023-01-19T00:32:04;4.24;78.10
70534;SHT31;58088;51.186;17.130;2023-01-19T00:34:31;4.23;78.08
70534;SHT31;58088;51.186;17.130;2023-01-19T00:37:09;4.22;78.07
70534;SHT31;58088;51.186;17.130;2023-01-19T00:39:36;4.26;78.08
70534;SHT31;58088;51.186;17.130;2023-01-19T00:42:02;4.30;78.08
70534;SHT31;58088;51.186;17.130;2023-01-19T00:44:47;4.33;78.01
70534;SHT31;58088;51.186;17.130;2023-01-19T00:47:13;4.34;78.02
70534;SHT31;58088;51.186;17.130;2023-01-19T00:49:39;4.35;78.00
70534;SHT31;58088;51.186;17.130;2023-01-19T00:52:05;4.36;77.97
70534;SHT31;58088;51.186;17.130;2023-01-19T00:54:32;4.37;78.00
70534;SHT31;58088;51.186;17.130;2023-01-19T00:56:58;4.39;78.00
70534;SHT31;58088;51.186;17.130;2023-01-19T00:59:24;4.41;77.94
70534;SHT31;58088;51.186;17.130;2023-01-19T01:01:50;4.40;77.90
70534;SHT31;58088;51.186;17.130;2023-01-19T01:04:16;4.41;77.85
70534;SHT31;58088;51.186;17.130;2023-01-19T01:06:42;4.41;77.80
70534;SHT31;58088;51.186;17.130;2023-01-19T01:09:09;4.40;77.76
70534;SHT31;58088;51.186;17.130;2023-01-19T01:11:38;4.38;77.62
70534;SHT31;58088;51.186;17.130;2023-01-19T01:14:11;4.36;77.57
70534;SHT31;58088;51.186;17.130;2023-01-19T01:16:38;4.32;77.48
70534;SHT31;58088;51.186;17.130;2023-01-19T01:19:04;4.29;77.43
70534;SHT31;58088;51.186;17.130;2023-01-19T01:21:31;4.26;77.40
70534;SHT31;58088;51.186;17.130;2023-01-19T01:23:59;4.22;77.35
70534;SHT31;58088;51.186;17.130;2023-01-19T01:26:25;4.17;77.34
70534;SHT31;58088;51.186;17.130;2023-01-19T01:28:51;4.12;77.29
70534;SHT31;58088;51.186;17.130;2023-01-19T01:31:17;4.09;77.21
70534;SHT31;58088;51.186;17.130;2023-01-19T01:33:43;4.03;77.12
70534;SHT31;58088;51.186;17.130;2023-01-19T01:36:10;3.94;76.99
70534;SHT31;58088;51.186;17.130;2023-01-19T01:38:38;3.86;76.90
70534;SHT31;58088;51.186;17.130;2023-01-19T01:41:07;3.82;76.90
70534;SHT31;58088;51.186;17.130;2023-01-19T01:46:29;3.72;76.80
70534;SHT31;58088;51.186;17.130;2023-01-19T01:51:42;3.63;76.62
70534;SHT31;58088;51.186;17.130;2023-01-19T01:54:17;3.58;76.59
70534;SHT31;58088;51.186;17.130;2023-01-19T01:56:58;3.59;76.60
70534;SHT31;58088;51.186;17.130;2023-01-19T01:59:39;3.59;76.60
70534;SHT31;58088;51.186;17.130;2023-01-19T02:02:11;3.58;76.49
70534;SHT31;58088;51.186;17.130;2023-01-19T02:05:12;3.55;76.50
70534;SHT31;58088;51.186;17.130;2023-01-19T02:07:51;3.52;76.55
70534;SHT31;58088;51.186;17.130;2023-01-19T02:10:47;3.52;76.59
70534;SHT31;58088;51.186;17.130;2023-01-19T02:13:36;3.50;76.59
70534;SHT31;58088;51.186;17.130;2023-01-19T02:16:08;3.47;76.58
70534;SHT31;58088;51.186;17.130;2023-01-19T02:18:37;3.43;76.61
70534;SHT31;58088;51.186;17.130;2023-01-19T02:21:07;3.41;76.60
70534;SHT31;58088;51.186;17.130;2023-01-19T02:24:00;3.37;76.62
70534;SHT31;58088;51.186;17.130;2023-01-19T02:26:34;3.36;76.67
70534;SHT31;58088;51.186;17.130;2023-01-19T02:29:06;3.35;76.70
70534;SHT31;58088;51.186;17.130;2023-01-19T02:31:36;3.35;76.69
70534;SHT31;58088;51.186;17.130;2023-01-19T02:34:05;3.35;76.73
70534;SHT31;58088;51.186;17.130;2023-01-19T02:36:40;3.37;76.70
70534;SHT31;58088;51.186;17.130;2023-01-19T02:39:10;3.36;76.64
70534;SHT31;58088;51.186;17.130;2023-01-19T02:41:41;3.36;76.70
70534;SHT31;58088;51.186;17.130;2023-01-19T02:44:13;3.37;76.67
70534;SHT31;58088;51.186;17.130;2023-01-19T02:46:41;3.37;76.62
70534;SHT31;58088;51.186;17.130;2023-01-19T02:49:08;3.34;76.55
70534;SHT31;58088;51.186;17.130;2023-01-19T02:51:34;3.33;76.53
70534;SHT31;58088;51.186;17.130;2023-01-19T02:57:25;3.36;76.55
70534;SHT31;58088;51.186;17.130;2023-01-19T03:00:45;3.34;76.46
70534;SHT31;58088;51.186;17.130;2023-01-19T03:04:01;3.32;76.42
70534;SHT31;58088;51.186;17.130;2023-01-19T03:06:48;3.30;76.42
70534;SHT31;58088;51.186;17.130;2023-01-19T03:09:49;3.29;76.40
70534;SHT31;58088;51.186;17.130;2023-01-19T03:18:15;3.29;76.35
70534;SHT31;58088;51.186;17.130;2023-01-19T03:20:46;3.29;76.33
70534;SHT31;58088;51.186;17.130;2023-01-19T03:23:17;3.28;76.37
70534;SHT31;58088;51.186;17.130;2023-01-19T03:25:49;3.26;76.33
70534;SHT31;58088;51.186;17.130;2023-01-19T03:28:19;3.21;76.34
70534;SHT31;58088;51.186;17.130;2023-01-19T03:30:52;3.17;76.40
70534;SHT31;58088;51.186;17.130;2023-01-19T03:33:31;3.19;76.50
70534;SHT31;58088;51.186;17.130;2023-01-19T03:36:04;3.20;76.50
70534;SHT31;58088;51.186;17.130;2023-01-19T03:38:38;3.21;76.50
70534;SHT31;58088;51.186;17.130;2023-01-19T03:41:09;3.23;76.50
70534;SHT31;58088;51.186;17.130;2023-01-19T03:43:41;3.21;76.50
70534;SHT31;58088;51.186;17.130;2023-01-19T03:46:09;3.21;76.52
70534;SHT31;58088;51.186;17.130;2023-01-19T03:48:37;3.21;76.53
70534;SHT31;58088;51.186;17.130;2023-01-19T03:51:04;3.23;76.60
70534;SHT31;58088;51.186;17.130;2023-01-19T03:53:34;3.21;76.66
70534;SHT31;58088;51.186;17.130;2023-01-19T03:56:00;3.22;76.77
70534;SHT31;58088;51.186;17.130;2023-01-19T03:58:28;3.23;76.79
70534;SHT31;58088;51.186;17.130;2023-01-19T04:00:54;3.22;76.76
70534;SHT31;58088;51.186;17.130;2023-01-19T04:03:20;3.21;76.80
70534;SHT31;58088;51.186;17.130;2023-01-19T04:05:47;3.20;76.89
70534;SHT31;58088;51.186;17.130;2023-01-19T04:08:13;3.20;76.97
70534;SHT31;58088;51.186;17.130;2023-01-19T04:10:39;3.18;77.04
70534;SHT31;58088;51.186;17.130;2023-01-19T04:13:05;3.14;77.08
70534;SHT31;58088;51.186;17.130;2023-01-19T04:15:31;3.12;77.22
70534;SHT31;58088;51.186;17.130;2023-01-19T04:17:58;3.09;77.37
70534;SHT31;58088;51.186;17.130;2023-01-19T04:20:26;3.08;77.44
70534;SHT31;58088;51.186;17.130;2023-01-19T04:22:53;3.09;77.58
70534;SHT31;58088;51.186;17.130;2023-01-19T04:25:23;3.09;77.60
70534;SHT31;58088;51.186;17.130;2023-01-19T04:27:52;3.09;77.68
70534;SHT31;58088;51.186;17.130;2023-01-19T04:30:20;3.10;77.81
70534;SHT31;58088;51.186;17.130;2023-01-19T04:32:47;3.09;77.89
70534;SHT31;58088;51.186;17.130;2023-01-19T04:35:13;3.10;78.02
70534;SHT31;58088;51.186;17.130;2023-01-19T04:37:39;3.12;78.01
70534;SHT31;58088;51.186;17.130;2023-01-19T04:40:06;3.10;78.13
70534;SHT31;58088;51.186;17.130;2023-01-19T04:42:33;3.11;78.21
70534;SHT31;58088;51.186;17.130;2023-01-19T04:45:00;3.12;78.31
70534;SHT31;58088;51.186;17.130;2023-01-19T04:47:26;3.14;78.36
70534;SHT31;58088;51.186;17.130;2023-01-19T04:49:52;3.16;78.36
70534;SHT31;58088;51.186;17.130;2023-01-19T04:52:18;3.15;78.39
70534;SHT31;58088;51.186;17.130;2023-01-19T04:54:44;3.15;78.47
70534;SHT31;58088;51.186;17.130;2023-01-19T04:57:10;3.18;78.48
70534;SHT31;58088;51.186;17.130;2023-01-19T04:59:37;3.21;78.52
70534;SHT31;58088;51.186;17.130;2023-01-19T05:02:03;3.23;78.53
70534;SHT31;58088;51.186;17.130;2023-01-19T05:04:29;3.23;78.49
70534;SHT31;58088;51.186;17.130;2023-01-19T05:06:55;3.23;78.55
70534;SHT31;58088;51.186;17.130;2023-01-19T05:09:22;3.23;78.61
70534;SHT31;58088;51.186;17.130;2023-01-19T05:11:49;3.24;78.64
70534;SHT31;58088;51.186;17.130;2023-01-19T05:14:15;3.27;78.58
70534;SHT31;58088;51.186;17.130;2023-01-19T05:16:41;3.25;78.55
70534;SHT31;58088;51.186;17.130;2023-01-19T05:19:07;3.24;78.58
70534;SHT31;58088;51.186;17.130;2023-01-19T05:21:34;3.24;78.61
70534;SHT31;58088;51.186;17.130;2023-01-19T05:24:00;3.24;78.59
70534;SHT31;58088;51.186;17.130;2023-01-19T05:26:26;3.23;78.60
70534;SHT31;58088;51.186;17.130;2023-01-19T05:28:52;3.22;78.66
70534;SHT31;58088;51.186;17.130;2023-01-19T05:31:18;3.23;78.77
70534;SHT31;58088;51.186;17.130;2023-01-19T05:33:45;3.24;78.83
70534;SHT31;58088;51.186;17.130;2023-01-19T05:36:11;3.27;78.80
70534;SHT31;58088;51.186;17.130;2023-01-19T05:38:37;3.29;78.81
70534;SHT31;58088;51.186;17.130;2023-01-19T05:41:03;3.27;78.86
70534;SHT31;58088;51.186;17.130;2023-01-19T05:43:30;3.27;78.80
70534;SHT31;58088;51.186;17.130;2023-01-19T05:45:56;3.23;78.93
70534;SHT31;58088;51.186;17.130;2023-01-19T05:48:22;3.26;78.98
70534;SHT31;58088;51.186;17.130;2023-01-19T05:50:48;3.26;78.93
70534;SHT31;58088;51.186;17.130;2023-01-19T05:53:16;3.26;79.00
70534;SHT31;58088;51.186;17.130;2023-01-19T05:55:42;3.28;79.05
70534;SHT31;58088;51.186;17.130;2023-01-19T05:58:09;3.32;79.09
70534;SHT31;58088;51.186;17.130;2023-01-19T06:00:35;3.36;79.10
70534;SHT31;58088;51.186;17.130;2023-01-19T06:03:01;3.35;79.01
70534;SHT31;58088;51.186;17.130;2023-01-19T06:05:28;3.36;79.13
70534;SHT31;58088;51.186;17.130;2023-01-19T06:07:55;3.37;79.10
70534;SHT31;58088;51.186;17.130;2023-01-19T06:10:21;3.37;79.09
70534;SHT31;58088;51.186;17.130;2023-01-19T06:12:48;3.35;79.07
70534;SHT31;58088;51.186;17.130;2023-01-19T06:15:14;3.36;79.03
70534;SHT31;58088;51.186;17.130;2023-01-19T06:17:40;3.33;78.98
70534;SHT31;58088;51.186;17.130;2023-01-19T06:20:07;3.30;78.97
70534;SHT31;58088;51.186;17.130;2023-01-19T06:22:35;3.29;78.99
70534;SHT31;58088;51.186;17.130;2023-01-19T06:25:01;3.26;79.05
70534;SHT31;58088;51.186;17.130;2023-01-19T06:27:28;3.27;79.05
70534;SHT31;58088;51.186;17.130;2023-01-19T06:29:54;3.29;79.14
70534;SHT31;58088;51.186;17.130;2023-01-19T06:32:20;3.32;79.23
70534;SHT31;58088;51.186;17.130;2023-01-19T06:34:46;3.37;79.26
70534;SHT31;58088;51.186;17.130;2023-01-19T06:37:12;3.39;79.22
70534;SHT31;58088;51.186;17.130;2023-01-19T06:39:41;3.40;79.28
70534;SHT31;58088;51.186;17.130;2023-01-19T06:42:09;3.44;79.30
70534;SHT31;58088;51.186;17.130;2023-01-19T06:44:36;3.46;79.21
70534;SHT31;58088;51.186;17.130;2023-01-19T06:47:02;3.47;79.14
70534;SHT31;58088;51.186;17.130;2023-01-19T06:49:28;3.44;79.01
70534;SHT31;58088;51.186;17.130;2023-01-19T06:51:54;3.40;78.94
70534;SHT31;58088;51.186;17.130;2023-01-19T06:54:21;3.39;79.00
70534;SHT31;58088;51.186;17.130;2023-01-19T06:56:47;3.39;78.99
70534;SHT31;58088;51.186;17.130;2023-01-19T06:59:13;3.38;79.06
70534;SHT31;58088;51.186;17.130;2023-01-19T07:01:39;3.39;79.00
70534;SHT31;58088;51.186;17.130;2023-01-19T07:04:06;3.41;78.94
70534;SHT31;58088;51.186;17.130;2023-01-19T07:06:32;3.44;78.89
70534;SHT31;58088;51.186;17.130;2023-01-19T07:08:58;3.48;78.81
70534;SHT31;58088;51.186;17.130;2023-01-19T07:11:25;3.47;78.67
70534;SHT31;58088;51.186;17.130;2023-01-19T07:13:52;3.45;78.61
70534;SHT31;58088;51.186;17.130;2023-01-19T07:16:20;3.45;78.60
70534;SHT31;58088;51.186;17.130;2023-01-19T07:18:47;3.45;78.59
70534;SHT31;58088;51.186;17.130;2023-01-19T07:21:14;3.42;78.57
70534;SHT31;58088;51.186;17.130;2023-01-19T07:23:40;3.39;78.61
70534;SHT31;58088;51.186;17.130;2023-01-19T07:26:08;3.39;78.67
70534;SHT31;58088;51.186;17.130;2023-01-19T07:28:35;3.39;78.65
70534;SHT31;58088;51.186;17.130;2023-01-19T07:31:01;3.39;78.60
70534;SHT31;58088;51.186;17.130;2023-01-19T07:33:28;3.40;78.60
70534;SHT31;58088;51.186;17.130;2023-01-19T07:35:54;3.39;78.59
70534;SHT31;58088;51.186;17.130;2023-01-19T07:38:21;3.40;78.56
70534;SHT31;58088;51.186;17.130;2023-01-19T07:40:47;3.40;78.51
70534;SHT31;58088;51.186;17.130;2023-01-19T07:43:13;3.41;78.51
70534;SHT31;58088;51.186;17.130;2023-01-19T07:45:41;3.40;78.50
70534;SHT31;58088;51.186;17.130;2023-01-19T07:48:08;3.41;78.50
70534;SHT31;58088;51.186;17.130;2023-01-19T07:50:34;3.42;78.50
70534;SHT31;58088;51.186;17.130;2023-01-19T07:53:04;3.44;78.47
70534;SHT31;58088;51.186;17.130;2023-01-19T07:55:31;3.43;78.30
70534;SHT31;58088;51.186;17.130;2023-01-19T07:57:57;3.47;78.30
70534;SHT31;58088;51.186;17.130;2023-01-19T08:00:24;3.51;78.22
70534;SHT31;58088;51.186;17.130;2023-01-19T08:02:50;3.56;78.25
70534;SHT31;58088;51.186;17.130;2023-01-19T08:05:18;3.59;78.14
70534;SHT31;58088;51.186;17.130;2023-01-19T08:07:46;3.60;77.95
70534;SHT31;58088;51.186;17.130;2023-01-19T08:10:13;3.61;77.90
70534;SHT31;58088;51.186;17.130;2023-01-19T08:12:40;3.63;77.83
70534;SHT31;58088;51.186;17.130;2023-01-19T08:15:07;3.64;77.71
70534;SHT31;58088;51.186;17.130;2023-01-19T08:17:35;3.66;77.70
70534;SHT31;58088;51.186;17.130;2023-01-19T08:20:02;3.67;77.64
70534;SHT31;58088;51.186;17.130;2023-01-19T08:22:28;3.70;77.61
70534;SHT31;58088;51.186;17.130;2023-01-19T08:24:55;3.69;77.51
70534;SHT31;58088;51.186;17.130;2023-01-19T08:27:21;3.67;77.50
70534;SHT31;58088;51.186;17.130;2023-01-19T08:29:48;3.66;77.50
70534;SHT31;58088;51.186;17.130;2023-01-19T08:32:14;3.65;77.44
70534;SHT31;58088;51.186;17.130;2023-01-19T08:34:40;3.63;77.40
70534;SHT31;58088;51.186;17.130;2023-01-19T08:37:06;3.63;77.37
70534;SHT31;58088;51.186;17.130;2023-01-19T08:39:32;3.63;77.31
70534;SHT31;58088;51.186;17.130;2023-01-19T08:41:59;3.61;77.30
70534;SHT31;58088;51.186;17.130;2023-01-19T08:44:26;3.63;77.32
70534;SHT31;58088;51.186;17.130;2023-01-19T08:46:52;3.63;77.28
70534;SHT31;58088;51.186;17.130;2023-01-19T08:49:19;3.62;77.21
70534;SHT31;58088;51.186;17.130;2023-01-19T08:51:45;3.62;77.20
70534;SHT31;58088;51.186;17.130;2023-01-19T08:54:12;3.64;77.20
70534;SHT31;58088;51.186;17.130;2023-01-19T08:56:38;3.64;77.17
70534;SHT31;58088;51.186;17.130;2023-01-19T08:59:04;3.64;77.10
70534;SHT31;58088;51.186;17.130;2023-01-19T09:01:30;3.65;77.08
70534;SHT31;58088;51.186;17.130;2023-01-19T09:03:56;3.65;76.98
70534;SHT31;58088;51.186;17.130;2023-01-19T09:06:22;3.63;76.91
70534;SHT31;58088;51.186;17.130;2023-01-19T09:08:49;3.63;76.76
70534;SHT31;58088;51.186;17.130;2023-01-19T09:11:16;3.61;76.66
70534;SHT31;58088;51.186;17.130;2023-01-19T09:13:42;3.60;76.54
70534;SHT31;58088;51.186;17.130;2023-01-19T09:16:08;3.58;76.34
70534;SHT31;58088;51.186;17.130;2023-01-19T09:18:37;3.59;76.21
70534;SHT31;58088;51.186;17.130;2023-01-19T09:21:04;3.61;76.15
70534;SHT31;58088;51.186;17.130;2023-01-19T09:23:30;3.59;75.93
70534;SHT31;58088;51.186;17.130;2023-01-19T09:25:58;3.58;75.82
70534;SHT31;58088;51.186;17.130;2023-01-19T09:28:27;3.60;75.81
70534;SHT31;58088;51.186;17.130;2023-01-19T09:30:54;3.61;75.70
70534;SHT31;58088;51.186;17.130;2023-01-19T09:33:21;3.63;75.57
70534;SHT31;58088;51.186;17.130;2023-01-19T09:35:49;3.63;75.50
70534;SHT31;58088;51.186;17.130;2023-01-19T09:38:16;3.61;75.44
70534;SHT31;58088;51.186;17.130;2023-01-19T09:40:48;3.65;75.38
70534;SHT31;58088;51.186;17.130;2023-01-19T09:43:40;3.70;75.24
70534;SHT31;58088;51.186;17.130;2023-01-19T09:48:49;3.78;74.89
70534;SHT31;58088;51.186;17.130;2023-01-19T09:51:22;3.82;74.74
70534;SHT31;58088;51.186;17.130;2023-01-19T09:56:21;3.90;74.56
70534;SHT31;58088;51.186;17.130;2023-01-19T09:58:49;3.94;74.51
70534;SHT31;58088;51.186;17.130;2023-01-19T10:07:08;4.16;74.42
70534;SHT31;58088;51.186;17.130;2023-01-19T10:21:52;4.60;72.93
70534;SHT31;58088;51.186;17.130;2023-01-19T10:27:13;4.60;72.29
70534;SHT31;58088;51.186;17.130;2023-01-19T10:29:43;4.62;72.16
70534;SHT31;58088;51.186;17.130;2023-01-19T10:32:24;4.69;72.02
70534;SHT31;58088;51.186;17.130;2023-01-19T10:34:55;4.73;71.89
70534;SHT31;58088;51.186;17.130;2023-01-19T10:37:27;4.73;71.85
70534;SHT31;58088;51.186;17.130;2023-01-19T10:42:37;4.80;71.44
70534;SHT31;58088;51.186;17.130;2023-01-19T10:47:46;5.03;71.12
70534;SHT31;58088;51.186;17.130;2023-01-19T10:52:54;5.17;70.79
70534;SHT31;58088;51.186;17.130;2023-01-19T10:55:24;5.27;70.70
70534;SHT31;58088;51.186;17.130;2023-01-19T10:57:55;5.34;70.43
70534;SHT31;58088;51.186;17.130;2023-01-19T11:00:36;5.38;70.11
70534;SHT31;58088;51.186;17.130;2023-01-19T11:03:21;5.46;69.59
70534;SHT31;58088;51.186;17.130;2023-01-19T11:06:20;5.61;69.32
70534;SHT31;58088;51.186;17.130;2023-01-19T11:09:12;5.77;69.35
70534;SHT31;58088;51.186;17.130;2023-01-19T11:11:44;5.90;68.76
70534;SHT31;58088;51.186;17.130;2023-01-19T11:14:16;5.92;68.17
70534;SHT31;58088;51.186;17.130;2023-01-19T11:16:48;5.91;67.65
70534;SHT31;58088;51.186;17.130;2023-01-19T11:19:24;5.95;67.64
70534;SHT31;58088;51.186;17.130;2023-01-19T11:22:08;6.03;67.38
70534;SHT31;58088;51.186;17.130;2023-01-19T11:24:48;6.12;67.39
70534;SHT31;58088;51.186;17.130;2023-01-19T11:27:16;6.17;67.45
70534;SHT31;58088;51.186;17.130;2023-01-19T11:29:49;6.05;67.04
70534;SHT31;58088;51.186;17.130;2023-01-19T11:32:32;6.01;66.93
70534;SHT31;58088;51.186;17.130;2023-01-19T11:35:03;5.96;66.55
70534;SHT31;58088;51.186;17.130;2023-01-19T11:40:36;6.09;66.13
70534;SHT31;58088;51.186;17.130;2023-01-19T11:43:03;6.16;66.20
70534;SHT31;58088;51.186;17.130;2023-01-19T11:45:30;6.23;65.82
70534;SHT31;58088;51.186;17.130;2023-01-19T11:48:00;6.26;65.69
70534;SHT31;58088;51.186;17.130;2023-01-19T11:50:30;6.26;65.60
70534;SHT31;58088;51.186;17.130;2023-01-19T11:55:57;6.05;65.46
70534;SHT31;58088;51.186;17.130;2023-01-19T11:58:24;6.07;65.16
70534;SHT31;58088;51.186;17.130;2023-01-19T12:00:53;6.07;65.40
70534;SHT31;58088;51.186;17.130;2023-01-19T12:03:50;6.08;65.15
70534;SHT31;58088;51.186;17.130;2023-01-19T12:06:31;6.10;65.09
70534;SHT31;58088;51.186;17.130;2023-01-19T12:11:36;6.12;64.35
70534;SHT31;58088;51.186;17.130;2023-01-19T12:14:18;6.04;64.08
70534;SHT31;58088;51.186;17.130;2023-01-19T12:16:52;5.99;64.16
70534;SHT31;58088;51.186;17.130;2023-01-19T12:19:26;5.92;64.09
70534;SHT31;58088;51.186;17.130;2023-01-19T12:22:17;5.93;64.36
70534;SHT31;58088;51.186;17.130;2023-01-19T12:25:00;5.97;64.26
70534;SHT31;58088;51.186;17.130;2023-01-19T12:27:40;6.01;64.11
70534;SHT31;58088;51.186;17.130;2023-01-19T12:30:15;6.03;64.06
70534;SHT31;58088;51.186;17.130;2023-01-19T12:32:49;5.99;63.56
70534;SHT31;58088;51.186;17.130;2023-01-19T12:38:22;5.91;62.44
70534;SHT31;58088;51.186;17.130;2023-01-19T13:02:47;5.69;63.47
70534;SHT31;58088;51.186;17.130;2023-01-19T13:05:17;5.67;63.51
70534;SHT31;58088;51.186;17.130;2023-01-19T13:13:24;5.69;63.54
70534;SHT31;58088;51.186;17.130;2023-01-19T13:15:54;5.69;63.36
70534;SHT31;58088;51.186;17.130;2023-01-19T13:18:41;5.70;62.98
70534;SHT31;58088;51.186;17.130;2023-01-19T13:24:06;5.68;62.80
70534;SHT31;58088;51.186;17.130;2023-01-19T13:26:38;5.66;62.94
70534;SHT31;58088;51.186;17.130;2023-01-19T13:29:31;5.64;62.98
70534;SHT31;58088;51.186;17.130;2023-01-19T13:32:20;5.63;62.66
70534;SHT31;58088;51.186;17.130;2023-01-19T13:34:53;5.59;62.56
70534;SHT31;58088;51.186;17.130;2023-01-19T13:37:34;5.53;62.53
70534;SHT31;58088;51.186;17.130;2023-01-19T13:40:06;5.43;62.48
70534;SHT31;58088;51.186;17.130;2023-01-19T13:42:44;5.42;62.56
70534;SHT31;58088;51.186;17.130;2023-01-19T13:45:19;5.44;62.36
70534;SHT31;58088;51.186;17.130;2023-01-19T13:47:58;5.44;62.03
70534;SHT31;58088;51.186;17.130;2023-01-19T13:50:31;5.41;61.78
70534;SHT31;58088;51.186;17.130;2023-01-19T13:53:13;5.40;61.95
70534;SHT31;58088;51.186;17.130;2023-01-19T13:55:43;5.42;62.43
70534;SHT31;58088;51.186;17.130;2023-01-19T13:58:20;5.45;62.39
70534;SHT31;58088;51.186;17.130;2023-01-19T14:00:48;5.44;62.26
70534;SHT31;58088;51.186;17.130;2023-01-19T14:05:50;5.39;62.03
70534;SHT31;58088;51.186;17.130;2023-01-19T14:08:20;5.39;61.69
70534;SHT31;58088;51.186;17.130;2023-01-19T14:13:17;5.32;61.95
70534;SHT31;58088;51.186;17.130;2023-01-19T14:15:47;5.33;61.79
70534;SHT31;58088;51.186;17.130;2023-01-19T14:20:55;5.33;62.04
70534;SHT31;58088;51.186;17.130;2023-01-19T14:29:23;5.22;62.56
70534;SHT31;58088;51.186;17.130;2023-01-19T14:34:40;5.18;62.53
70534;SHT31;58088;51.186;17.130;2023-01-19T14:45:22;5.03;62.90
70534;SHT31;58088;51.186;17.130;2023-01-19T14:47:56;4.97;63.24
70534;SHT31;58088;51.186;17.130;2023-01-19T14:50:30;4.92;63.65
70534;SHT31;58088;51.186;17.130;2023-01-19T14:53:02;4.87;63.85
70534;SHT31;58088;51.186;17.130;2023-01-19T14:55:54;4.83;63.67
70534;SHT31;58088;51.186;17.130;2023-01-19T14:58:25;4.82;63.52
70534;SHT31;58088;51.186;17.130;2023-01-19T15:00:56;4.81;63.38
70534;SHT31;58088;51.186;17.130;2023-01-19T15:03:23;4.75;63.44
70534;SHT31;58088;51.186;17.130;2023-01-19T15:05:51;4.67;63.61
70534;SHT31;58088;51.186;17.130;2023-01-19T15:08:23;4.65;63.65
70534;SHT31;58088;51.186;17.130;2023-01-19T15:11:00;4.60;63.86
70534;SHT31;58088;51.186;17.130;2023-01-19T15:13:38;4.56;64.18
70534;SHT31;58088;51.186;17.130;2023-01-19T15:16:08;4.50;64.34
70534;SHT31;58088;51.186;17.130;2023-01-19T15:18:34;4.44;64.55
70534;SHT31;58088;51.186;17.130;2023-01-19T15:21:01;4.39;64.75
70534;SHT31;58088;51.186;17.130;2023-01-19T15:23:31;4.33;64.82
70534;SHT31;58088;51.186;17.130;2023-01-19T15:26:01;4.23;64.80
70534;SHT31;58088;51.186;17.130;2023-01-19T15:28:29;4.08;64.83
70534;SHT31;58088;51.186;17.130;2023-01-19T15:30:57;3.95;64.98
70534;SHT31;58088;51.186;17.130;2023-01-19T15:33:25;3.85;65.04
70534;SHT31;58088;51.186;17.130;2023-01-19T15:35:57;3.79;65.15
70534;SHT31;58088;51.186;17.130;2023-01-19T15:38:23;3.79;65.37
70534;SHT31;58088;51.186;17.130;2023-01-19T15:40:51;3.78;65.42
70534;SHT31;58088;51.186;17.130;2023-01-19T15:43:17;3.74;65.40
70534;SHT31;58088;51.186;17.130;2023-01-19T15:45:47;3.70;65.44
70534;SHT31;58088;51.186;17.130;2023-01-19T15:48:19;3.64;65.58
70534;SHT31;58088;51.186;17.130;2023-01-19T15:50:46;3.58;65.67
70534;SHT31;58088;51.186;17.130;2023-01-19T15:53:14;3.53;65.82
70534;SHT31;58088;51.186;17.130;2023-01-19T15:55:43;3.46;65.84
70534;SHT31;58088;51.186;17.130;2023-01-19T15:58:19;3.40;65.81
70534;SHT31;58088;51.186;17.130;2023-01-19T16:00:55;3.34;65.89
70534;SHT31;58088;51.186;17.130;2023-01-19T16:03:23;3.29;65.96
70534;SHT31;58088;51.186;17.130;2023-01-19T16:05:51;3.22;66.05
70534;SHT31;58088;51.186;17.130;2023-01-19T16:08:17;3.17;66.23
70534;SHT31;58088;51.186;17.130;2023-01-19T16:10:44;3.12;66.30
70534;SHT31;58088;51.186;17.130;2023-01-19T16:13:10;3.07;66.37
70534;SHT31;58088;51.186;17.130;2023-01-19T16:15:37;3.00;66.54
70534;SHT31;58088;51.186;17.130;2023-01-19T16:18:06;2.96;66.75
70534;SHT31;58088;51.186;17.130;2023-01-19T16:20:33;2.92;66.91
70534;SHT31;58088;51.186;17.130;2023-01-19T16:23:00;2.86;67.00
70534;SHT31;58088;51.186;17.130;2023-01-19T16:25:28;2.81;67.08
70534;SHT31;58088;51.186;17.130;2023-01-19T16:27:56;2.74;67.15
70534;SHT31;58088;51.186;17.130;2023-01-19T16:30:24;2.67;67.32
70534;SHT31;58088;51.186;17.130;2023-01-19T16:32:50;2.62;67.46
70534;SHT31;58088;51.186;17.130;2023-01-19T16:35:16;2.59;67.50
70534;SHT31;58088;51.186;17.130;2023-01-19T16:37:43;2.55;67.49
70534;SHT31;58088;51.186;17.130;2023-01-19T16:40:15;2.53;67.50
70534;SHT31;58088;51.186;17.130;2023-01-19T16:42:45;2.49;67.58
70534;SHT31;58088;51.186;17.130;2023-01-19T16:45:11;2.46;67.66
70534;SHT31;58088;51.186;17.130;2023-01-19T16:47:38;2.43;67.72
70534;SHT31;58088;51.186;17.130;2023-01-19T16:50:04;2.39;67.87
70534;SHT31;58088;51.186;17.130;2023-01-19T16:52:31;2.36;67.98
70534;SHT31;58088;51.186;17.130;2023-01-19T16:55:00;2.34;68.16
70534;SHT31;58088;51.186;17.130;2023-01-19T16:57:31;2.35;68.22
70534;SHT31;58088;51.186;17.130;2023-01-19T16:59:57;2.35;68.28
70534;SHT31;58088;51.186;17.130;2023-01-19T17:02:23;2.35;68.39
70534;SHT31;58088;51.186;17.130;2023-01-19T17:04:51;2.36;68.40
70534;SHT31;58088;51.186;17.130;2023-01-19T17:07:19;2.37;68.27
70534;SHT31;58088;51.186;17.130;2023-01-19T17:09:46;2.35;68.19
70534;SHT31;58088;51.186;17.130;2023-01-19T17:12:12;2.31;68.09
70534;SHT31;58088;51.186;17.130;2023-01-19T17:14:39;2.27;68.01
70534;SHT31;58088;51.186;17.130;2023-01-19T17:17:06;2.25;68.07
70534;SHT31;58088;51.186;17.130;2023-01-19T17:19:34;2.20;68.10
70534;SHT31;58088;51.186;17.130;2023-01-19T17:22:01;2.16;68.21
70534;SHT31;58088;51.186;17.130;2023-01-19T17:24:28;2.09;68.45
70534;SHT31;58088;51.186;17.130;2023-01-19T17:26:57;2.03;68.74
70534;SHT31;58088;51.186;17.130;2023-01-19T17:29:29;2.02;68.90
70534;SHT31;58088;51.186;17.130;2023-01-19T17:31:57;1.98;68.86
70534;SHT31;58088;51.186;17.130;2023-01-19T17:34:25;1.96;68.80
70534;SHT31;58088;51.186;17.130;2023-01-19T17:36:52;1.93;68.80
70534;SHT31;58088;51.186;17.130;2023-01-19T17:39:28;1.88;68.78
70534;SHT31;58088;51.186;17.130;2023-01-19T17:41:56;1.83;68.80